Time;durP1;ratioP1;P1;durP2;ratioP2;P2;SDS_P1;SDS_P2;PMS_P1;PMS_P2;Temp;Humidity;BMP_temperature;BMP_pressure;BME280_temperature;BME280_humidity;BME280_pressure;Samples;Min_cycle;Max_cycle;Signal;HPM_P1;HPM_P2
2023/06/17 00:01:15;;;;;;;;;;;;;;;;;;2199606;59;2326;-22
2023/06/17 00:03:45;;;;;;;;;;;;;;;;;;2197159;60;1947;-22
2023/06/17 00:06:16;;;;;;;;;;;;;;;;;;2198044;66;2894;-22
2023/06/17 00:08:46;;;;;;;;;;;;;;;;;;2198535;67;1858;-22
2023/06/17 00:11:16;;;;;;;;;;;;;;;;;;2197588;67;3087;-22
2023/06/17 00:13:46;;;;;;;;;;;;;;;;;;2198097;67;1845;-22
2023/06/17 00:16:17;;;;;;;;;;;;;;;;;;2197527;59;2228;-22
2023/06/17 00:18:51;;;;;;;;;;;;;;;;;;2198142;67;1842;-22
2023/06/17 00:21:21;;;;;;;;;;;;;;;;;;2198207;59;1539;-22
2023/06/17 00:23:52;;;;;;;;;;;;;;;;;;2198847;59;1948;-22
2023/06/17 00:26:23;;;;;;;;;;;;;;;;;;2197976;59;2805;-22
2023/06/17 00:28:53;;;;;;;;;;;;;;;;;;2201130;67;1725;-22
2023/06/17 00:31:23;;;;;;;;;;;;;;;;;;2199968;59;1830;-22
2023/06/17 00:33:54;;;;;;;;;;;;;;;;;;2199317;66;2529;-22
2023/06/17 00:36:24;;;;;;;;;;;;;;;;;;2198609;67;2028;-22
2023/06/17 00:38:55;;;;;;;;;;;;;;;;;;2198604;66;1745;-22
2023/06/17 00:41:25;;;;;;;;;;;;;;;;;;2198679;66;1991;-22
2023/06/17 00:43:56;;;;;;;;;;;;;;;;;;2198760;59;1461;-22
2023/06/17 00:46:36;;;;;;;;;;;;;;;;;;2197216;59;2205;-22
2023/06/17 00:49:09;;;;;;;;;;;;;;;;;;2202459;66;2240;-22
2023/06/17 00:51:39;;;;;;;;;;;;;;;;;;2198769;59;1676;-22
2023/06/17 00:54:13;;;;;;;;;;;;;;;;;;2198470;67;2224;-22
2023/06/17 00:56:43;;;;;;;;;;;;;;;;;;2198880;67;1812;-22
2023/06/17 00:59:14;;;;;;;;;;;;;;;;;;2198317;59;2240;-22
2023/06/17 01:01:44;;;;;;;;;;;;;;;;;;2198980;59;1941;-22
2023/06/17 01:04:15;;;;;;;;;;;;;;;;;;2198165;66;1801;-22
2023/06/17 01:06:52;;;;;;;;;;;;;;;;;;2198468;59;2281;-22
2023/06/17 01:09:24;;;;;;;;;;;;;;;;;;2198124;66;2303;-22
2023/06/17 01:11:56;;;;;;;;;;;;;;;;;;2198690;66;1756;-22
2023/06/17 01:14:27;;;;;;;;;;;;;;;;;;2197992;59;1622;-22
2023/06/17 01:16:57;;;;;;;;;;;;;;;;;;2198677;67;2400;-22
2023/06/17 01:19:28;;;;;;;;;;;;;;;;;;2198266;66;1805;-22
2023/06/17 01:21:58;;;;;;;;;;;;;;;;;;2198365;67;2082;-22
2023/06/17 01:24:29;;;;;;;;;;;;;;;;;;2197797;59;1700;-24
2023/06/17 01:27:02;;;;;;;;;;;;;;;;;;2198070;59;1915;-24
2023/06/17 01:29:38;;;;;;;;;;;;;;;;;;2198285;66;2385;-24
2023/06/17 01:32:11;;;;;;;;;;;;;;;;;;2198031;59;1874;-24
2023/06/17 01:34:55;;;;;;;;;;;;;;;;;;2197726;67;1964;-24
2023/06/17 01:37:42;;;;;;;;;;;;;;;;;;2197872;60;2159;-24
2023/06/17 01:40:13;;;;;;;;;;;;;;;;;;2198105;59;1765;-24
2023/06/17 01:42:45;;;;;;;;;;;;;;;;;;2198595;67;1991;-24
2023/06/17 01:45:15;;;;;;;;;;;;;;;;;;2197953;67;1942;-24
2023/06/17 01:47:45;;;;;;;;;;;;;;;;;;2198714;59;1765;-24
2023/06/17 01:50:19;;;;;;;;;;;;;;;;;;2197617;59;2793;-24
2023/06/17 01:52:49;;;;;;;;;;;;;;;;;;2198990;59;1618;-24
2023/06/17 01:55:20;;;;;;;;;;;;;;;;;;2197833;59;2187;-24
2023/06/17 01:57:50;;;;;;;;;;;;;;;;;;2198274;66;2559;-24
2023/06/17 02:00:20;;;;;;;;;;;;;;;;;;2198832;59;2302;-24
2023/06/17 02:02:51;;;;;;;;;;;;;;;;;;2199724;59;1965;-24
2023/06/17 02:05:21;;;;;;;;;;;;;;;;;;2198031;66;1810;-24
2023/06/17 02:07:52;;;;;;;;;;;;;;;;;;2199023;67;2675;-24
2023/06/17 02:10:22;;;;;;;;;;;;;;;;;;2194572;67;1779;-24
2023/06/17 02:12:52;;;;;;;;;;;;;;;;;;2198835;59;1180;-24
2023/06/17 02:15:23;;;;;;;;;;;;;;;;;;2197741;66;1908;-24
2023/06/17 02:17:53;;;;;;;;;;;;;;;;;;2197564;59;2073;-24
2023/06/17 02:20:23;;;;;;;;;;;;;;;;;;2197627;66;1207;-25
2023/06/17 02:22:53;;;;;;;;;;;;;;;;;;2198318;66;1996;-25
2023/06/17 02:25:23;;;;;;;;;;;;;;;;;;2197598;66;1632;-24
2023/06/17 02:27:54;;;;;;;;;;;;;;;;;;2197928;66;1632;-24
2023/06/17 02:30:24;;;;;;;;;;;;;;;;;;2198195;59;1661;-24
2023/06/17 02:32:54;;;;;;;;;;;;;;;;;;2195443;67;1564;-24
2023/06/17 02:35:25;;;;;;;;;;;;;;;;;;2199342;67;1603;-24
2023/06/17 02:37:55;;;;;;;;;;;;;;;;;;2198675;66;1668;-24
2023/06/17 02:40:26;;;;;;;;;;;;;;;;;;2198260;67;1496;-25
2023/06/17 02:42:56;;;;;;;;;;;;;;;;;;2197608;67;2281;-24
2023/06/17 02:45:29;;;;;;;;;;;;;;;;;;2197641;59;2282;-24
2023/06/17 02:47:59;;;;;;;;;;;;;;;;;;2197920;59;2496;-24
2023/06/17 02:50:29;;;;;;;;;;;;;;;;;;2197835;59;2038;-24
2023/06/17 02:53:00;;;;;;;;;;;;;;;;;;2197596;67;1779;-24
2023/06/17 02:55:30;;;;;;;;;;;;;;;;;;2198115;66;1496;-24
2023/06/17 02:58:00;;;;;;;;;;;;;;;;;;2198451;66;2010;-24
2023/06/17 03:00:32;;;;;;;;;;;;;;;;;;2197888;59;2290;-24
2023/06/17 03:03:02;;;;;;;;;;;;;;;;;;2198168;59;1937;-24
2023/06/17 03:05:33;;;;;;;;;;;;;;;;;;2198147;67;1893;-24
2023/06/17 03:08:06;;;;;;;;;;;;;;;;;;2198047;67;2467;-24
2023/06/17 03:10:36;;;;;;;;;;;;;;;;;;2197893;67;1719;-24
2023/06/17 03:13:07;;;;;;;;;;;;;;;;;;2197564;66;1578;-24
2023/06/17 03:15:37;;;;;;;;;;;;;;;;;;2198001;66;1511;-24
2023/06/17 03:18:07;;;;;;;;;;;;;;;;;;2198266;67;1728;-24
2023/06/17 03:20:38;;;;;;;;;;;;;;;;;;2198035;67;1609;-24
2023/06/17 03:23:08;;;;;;;;;;;;;;;;;;2198123;66;1924;-24
2023/06/17 03:25:38;;;;;;;;;;;;;;;;;;2198207;59;1485;-24
2023/06/17 03:28:09;;;;;;;;;;;;;;;;;;2198120;59;1512;-24
2023/06/17 03:30:42;;;;;;;;;;;;;;;;;;2197069;59;1840;-24
2023/06/17 03:33:13;;;;;;;;;;;;;;;;;;2197992;59;2093;-24
2023/06/17 03:35:43;;;;;;;;;;;;;;;;;;2197884;67;2455;-24
2023/06/17 03:38:13;;;;;;;;;;;;;;;;;;2197229;66;2707;-24
2023/06/17 03:40:44;;;;;;;;;;;;;;;;;;2198140;59;1624;-24
2023/06/17 03:43:15;;;;;;;;;;;;;;;;;;2197981;67;1940;-24
2023/06/17 03:45:45;;;;;;;;;;;;;;;;;;2197339;66;1373;-24
2023/06/17 03:48:15;;;;;;;;;;;;;;;;;;2198304;59;2577;-24
2023/06/17 03:50:46;;;;;;;;;;;;;;;;;;2198338;59;2443;-24
2023/06/17 03:53:16;;;;;;;;;;;;;;;;;;2198147;67;2495;-24
2023/06/17 03:55:46;;;;;;;;;;;;;;;;;;2198297;66;1960;-24
2023/06/17 03:58:17;;;;;;;;;;;;;;;;;;2197246;59;2495;-24
2023/06/17 04:00:47;;;;;;;;;;;;;;;;;;2198482;59;2267;-24
2023/06/17 04:03:18;;;;;;;;;;;;;;;;;;2198084;59;2018;-24
2023/06/17 04:05:49;;;;;;;;;;;;;;;;;;2198036;59;2185;-24
2023/06/17 04:08:22;;;;;;;;;;;;;;;;;;2197883;67;2081;-24
2023/06/17 04:10:52;;;;;;;;;;;;;;;;;;2197939;67;2580;-24
2023/06/17 04:13:22;;;;;;;;;;;;;;;;;;2197946;67;2127;-24
2023/06/17 04:15:52;;;;;;;;;;;;;;;;;;2198310;67;1997;-24
2023/06/17 04:18:24;;;;;;;;;;;;;;;;;;2197904;66;2251;-24
2023/06/17 04:20:56;;;;;;;;;;;;;;;;;;2197991;67;2524;-24
2023/06/17 04:23:26;;;;;;;;;;;;;;;;;;2199216;59;2088;-24
2023/06/17 04:25:56;;;;;;;;;;;;;;;;;;2199747;67;1601;-24
2023/06/17 04:28:31;;;;;;;;;;;;;;;;;;2198162;59;2026;-24
2023/06/17 04:31:02;;;;;;;;;;;;;;;;;;2198599;59;2407;-24
2023/06/17 04:33:32;;;;;;;;;;;;;;;;;;2199222;66;2187;-24
2023/06/17 04:36:07;;;;;;;;;;;;;;;;;;2197312;59;2062;-24
2023/06/17 04:38:39;;;;;;;;;;;;;;;;;;2197942;66;1944;-24
2023/06/17 04:41:10;;;;;;;;;;;;;;;;;;2198548;59;2171;-24
2023/06/17 04:43:40;;;;;;;;;;;;;;;;;;2197452;67;2636;-24
2023/06/17 04:46:12;;;;;;;;;;;;;;;;;;2197558;67;2474;-24
2023/06/17 04:48:43;;;;;;;;;;;;;;;;;;2197837;66;2204;-24
2023/06/17 04:51:17;;;;;;;;;;;;;;;;;;2197978;59;1769;-24
2023/06/17 04:53:47;;;;;;;;;;;;;;;;;;2197909;67;1535;-24
2023/06/17 04:56:19;;;;;;;;;;;;;;;;;;2197533;67;2202;-24
2023/06/17 04:58:53;;;;;;;;;;;;;;;;;;2198380;59;2047;-24
2023/06/17 05:01:23;;;;;;;;;;;;;;;;;;2197971;59;2585;-24
2023/06/17 05:03:53;;;;;;;;;;;;;;;;;;2198754;67;1942;-24
2023/06/17 05:06:26;;;;;;;;;;;;;;;;;;2198349;67;1796;-24
2023/06/17 05:08:56;;;;;;;;;;;;;;;;;;2198436;67;2366;-24
2023/06/17 05:11:29;;;;;;;;;;;;;;;;;;2200278;66;2039;-24
2023/06/17 05:14:00;;;;;;;;;;;;;;;;;;2198625;67;2130;-24
2023/06/17 05:16:30;;;;;;;;;;;;;;;;;;2198588;67;2022;-24
2023/06/17 05:19:00;;;;;;;;;;;;;;;;;;2198315;66;2087;-24
2023/06/17 05:21:30;;;;;;;;;;;;;;;;;;2198546;67;1892;-24
2023/06/17 05:24:01;;;;;;;;;;;;;;;;;;2198302;59;2000;-22
2023/06/17 05:26:31;;;;;;;;;;;;;;;;;;2198908;59;2003;-22
2023/06/17 05:29:01;;;;;;;;;;;;;;;;;;2197960;59;2476;-22
2023/06/17 05:31:31;;;;;;;;;;;;;;;;;;2198914;59;1424;-22
2023/06/17 05:34:02;;;;;;;;;;;;;;;;;;2197709;59;2703;-22
2023/06/17 05:36:32;;;;;;;;;;;;;;;;;;2197941;66;2097;-22
2023/06/17 05:39:02;;;;;;;;;;;;;;;;;;2198319;59;2103;-23
2023/06/17 05:41:32;;;;;;;;;;;;;;;;;;2198409;66;1963;-22
2023/06/17 05:44:03;;;;;;;;;;;;;;;;;;2201414;66;2009;-22
2023/06/17 05:46:33;;;;;;;;;;;;;;;;;;2197711;67;2459;-22
2023/06/17 05:49:03;;;;;;;;;;;;;;;;;;2198147;67;2377;-22
2023/06/17 05:51:33;;;;;;;;;;;;;;;;;;2198455;59;1921;-23
2023/06/17 05:54:03;;;;;;;;;;;;;;;;;;2197945;59;2671;-23
2023/06/17 05:56:34;;;;;;;;;;;;;;;;;;2197433;59;2440;-22
2023/06/17 05:59:04;;;;;;;;;;;;;;;;;;2197467;59;2066;-23
2023/06/17 06:01:34;;;;;;;;;;;;;;;;;;2196694;59;2631;-23
2023/06/17 06:04:04;;;;;;;;;;;;;;;;;;2196284;59;2691;-23
2023/06/17 06:06:35;;;;;;;;;;;;;;;;;;2197701;67;2042;-23
2023/06/17 06:09:05;;;;;;;;;;;;;;;;;;2198595;67;1895;-23
2023/06/17 06:11:35;;;;;;;;;;;;;;;;;;2198290;66;1906;-23
2023/06/17 06:14:05;;;;;;;;;;;;;;;;;;2198440;67;1623;-23
2023/06/17 06:16:35;;;;;;;;;;;;;;;;;;2198223;66;2022;-23
2023/06/17 06:19:06;;;;;;;;;;;;;;;;;;2197733;59;2359;-23
2023/06/17 06:21:36;;;;;;;;;;;;;;;;;;2197736;59;2328;-23
2023/06/17 06:24:06;;;;;;;;;;;;;;;;;;2198090;59;2059;-23
2023/06/17 06:26:37;;;;;;;;;;;;;;;;;;2197564;59;2212;-22
2023/06/17 06:29:08;;;;;;;;;;;;;;;;;;2194532;60;2703;-23
2023/06/17 06:31:42;;;;;;;;;;;;;;;;;;2198552;59;2051;-23
2023/06/17 06:34:12;;;;;;;;;;;;;;;;;;2197565;59;2663;-23
2023/06/17 06:36:42;;;;;;;;;;;;;;;;;;2194178;66;1951;-23
2023/06/17 06:39:12;;;;;;;;;;;;;;;;;;2197882;59;2534;-23
2023/06/17 06:41:46;;;;;;;;;;;;;;;;;;2195092;58;3660;-23
2023/06/17 06:44:16;;;;;;;;;;;;;;;;;;2196770;59;2497;-23
2023/06/17 06:46:46;;;;;;;;;;;;;;;;;;2197966;59;2488;-23
2023/06/17 06:49:21;;;;;;;;;;;;;;;;;;2197094;59;2210;-23
2023/06/17 06:51:51;;;;;;;;;;;;;;;;;;2198385;59;2559;-23
2023/06/17 06:54:21;;;;;;;;;;;;;;;;;;2196882;59;3109;-23
2023/06/17 06:56:51;;;;;;;;;;;;;;;;;;2198367;67;2840;-23
2023/06/17 06:59:22;;;;;;;;;;;;;;;;;;2198397;59;2511;-23
2023/06/17 07:01:52;;;;;;;;;;;;;;;;;;2201025;59;2521;-23
2023/06/17 07:04:22;;;;;;;;;;;;;;;;;;2197089;67;2976;-23
2023/06/17 07:06:52;;;;;;;;;;;;;;;;;;2199078;67;2224;-23
2023/06/17 07:09:22;;;;;;;;;;;;;;;;;;2198217;67;3684;-23
2023/06/17 07:11:53;;;;;;;;;;;;;;;;;;2198015;66;2427;-23
2023/06/17 07:14:23;;;;;;;;;;;;;;;;;;2197176;66;2413;-23
2023/06/17 07:16:53;;;;;;;;;;;;;;;;;;2197716;59;2825;-23
2023/06/17 07:19:23;;;;;;;;;;;;;;;;;;2197557;60;3057;-23
2023/06/17 07:21:53;;;;;;;;;;;;;;;;;;2195637;66;2282;-24
2023/06/17 07:24:24;;;;;;;;;;;;;;;;;;2196758;59;3226;-23
2023/06/17 07:26:54;;;;;;;;;;;;;;;;;;2196862;59;2043;-23
2023/06/17 07:29:25;;;;;;;;;;;;;;;;;;2197542;66;2087;-23
2023/06/17 07:31:59;;;;;;;;;;;;;;;;;;2197828;59;2099;-23
2023/06/17 07:34:35;;;;;;;;;;;;;;;;;;2195001;67;2966;-23
2023/06/17 07:37:05;;;;;;;;;;;;;;;;;;2197778;67;2503;-23
2023/06/17 07:39:35;;;;;;;;;;;;;;;;;;2197040;59;2043;-23
2023/06/17 07:42:06;;;;;;;;;;;;;;;;;;2199579;59;3408;-24
2023/06/17 07:44:36;;;;;;;;;;;;;;;;;;2195797;60;3160;-24
2023/06/17 07:47:06;;;;;;;;;;;;;;;;;;2198345;59;2620;-24
2023/06/17 07:49:36;;;;;;;;;;;;;;;;;;2199267;59;2136;-24
2023/06/17 07:52:07;;;;;;;;;;;;;;;;;;2198423;59;2060;-24
2023/06/17 07:54:37;;;;;;;;;;;;;;;;;;2197076;67;2946;-24
2023/06/17 07:57:07;;;;;;;;;;;;;;;;;;2198290;66;2384;-24
2023/06/17 07:59:38;;;;;;;;;;;;;;;;;;2198450;59;2175;-24
2023/06/17 08:02:08;;;;;;;;;;;;;;;;;;2198099;59;2509;-24
2023/06/17 08:04:38;;;;;;;;;;;;;;;;;;2196282;67;3128;-22
2023/06/17 08:07:10;;;;;;;;;;;;;;;;;;2197371;59;2434;-22
2023/06/17 08:09:41;;;;;;;;;;;;;;;;;;2197949;67;2816;-22
2023/06/17 08:12:11;;;;;;;;;;;;;;;;;;2196937;67;2230;-22
2023/06/17 08:14:44;;;;;;;;;;;;;;;;;;2195968;67;2904;-22
2023/06/17 08:17:14;;;;;;;;;;;;;;;;;;2197875;59;2820;-22
2023/06/17 08:19:45;;;;;;;;;;;;;;;;;;2197186;59;2092;-22
2023/06/17 08:22:15;;;;;;;;;;;;;;;;;;2196159;59;2592;-22
2023/06/17 08:24:45;;;;;;;;;;;;;;;;;;2196902;59;3083;-23
2023/06/17 08:27:15;;;;;;;;;;;;;;;;;;2197538;59;2209;-22
2023/06/17 08:29:45;;;;;;;;;;;;;;;;;;2196309;67;2654;-23
2023/06/17 08:32:16;;;;;;;;;;;;;;;;;;2196451;59;2415;-22
2023/06/17 08:34:46;;;;;;;;;;;;;;;;;;2194694;66;3441;-23
2023/06/17 08:37:16;;;;;;;;;;;;;;;;;;2196042;59;2686;-22
2023/06/17 08:39:46;;;;;;;;;;;;;;;;;;2198253;59;2061;-22
2023/06/17 08:42:16;;;;;;;;;;;;;;;;;;2197218;66;2537;-23
2023/06/17 08:44:48;;;;;;;;;;;;;;;;;;2196843;66;3283;-23
2023/06/17 08:47:22;;;;;;;;;;;;;;;;;;2198195;59;2444;-22
2023/06/17 08:49:56;;;;;;;;;;;;;;;;;;2198691;66;2063;-23
2023/06/17 08:52:31;;;;;;;;;;;;;;;;;;2198546;59;2689;-23
2023/06/17 08:55:06;;;;;;;;;;;;;;;;;;2195515;67;4228;-22
2023/06/17 08:57:36;;;;;;;;;;;;;;;;;;2198989;59;2047;-23
2023/06/17 09:00:10;;;;;;;;;;;;;;;;;;2198525;59;2282;-23
2023/06/17 09:02:43;;;;;;;;;;;;;;;;;;2197349;59;2701;-23
2023/06/17 09:05:13;;;;;;;;;;;;;;;;;;2197578;67;2785;-23
2023/06/17 09:07:43;;;;;;;;;;;;;;;;;;2198025;67;2824;-23
2023/06/17 09:10:14;;;;;;;;;;;;;;;;;;2196946;66;2677;-23
2023/06/17 09:12:44;;;;;;;;;;;;;;;;;;2197788;67;2043;-23
2023/06/17 09:15:15;;;;;;;;;;;;;;;;;;2197154;66;2631;-23
2023/06/17 09:17:46;;;;;;;;;;;;;;;;;;2198071;59;2573;-23
2023/06/17 09:20:16;;;;;;;;;;;;;;;;;;2196937;59;2635;-23
2023/06/17 09:22:47;;;;;;;;;;;;;;;;;;2194872;59;2786;-23
2023/06/17 09:25:20;;;;;;;;;;;;;;;;;;2199885;54;3648;-19
2023/06/17 09:27:51;;;;;;;;;;;;;;;;;;2218465;58;1721;-19
2023/06/17 09:30:22;;;;;;;;;;;;;;;;;;2212507;58;2146;-19
2023/06/17 09:32:53;;;;;;;;;;;;;;;;;;2212139;66;1951;-19
2023/06/17 09:35:23;;;;;;;;;;;;;;;;;;2213743;59;2337;-19
2023/06/17 09:37:54;;;;;;;;;;;;;;;;;;2211699;66;1965;-19
2023/06/17 09:40:28;;;;;;;;;;;;;;;;;;2211150;59;2339;-19
2023/06/17 09:42:58;;;;;;;;;;;;;;;;;;2209637;59;2336;-19
2023/06/17 09:45:34;;;;;;;;;;;;;;;;;;2210000;59;2731;-19
2023/06/17 09:48:04;;;;;;;;;;;;;;;;;;2204912;59;1775;-19
2023/06/17 09:50:36;;;;;;;;;;;;;;;;;;2209954;59;2423;-19
2023/06/17 09:53:07;;;;;;;;;;;;;;;;;;2213120;59;1944;-19
2023/06/17 09:55:38;;;;;;;;;;;;;;;;;;2210539;66;1886;-19
2023/06/17 09:58:11;;;;;;;;;;;;;;;;;;2211474;59;1999;-19
2023/06/17 10:00:41;;;;;;;;;;;;;;;;;;2211141;59;2373;-19
2023/06/17 10:03:11;;;;;;;;;;;;;;;;;;2210628;59;2457;-19
2023/06/17 10:05:42;;;;;;;;;;;;;;;;;;2209877;59;2261;-19
2023/06/17 10:08:12;;;;;;;;;;;;;;;;;;2211795;66;2135;-19
2023/06/17 10:10:42;;;;;;;;;;;;;;;;;;2207626;67;1339;-19
2023/06/17 10:13:13;;;;;;;;;;;;;;;;;;2210634;59;2004;-19
2023/06/17 10:15:43;;;;;;;;;;;;;;;;;;2211826;67;1427;-19
2023/06/17 10:18:15;;;;;;;;;;;;;;;;;;2208317;66;1309;-19
2023/06/17 10:20:47;;;;;;;;;;;;;;;;;;2212131;66;1218;-19
2023/06/17 10:23:19;;;;;;;;;;;;;;;;;;2210947;66;2387;-19
2023/06/17 10:25:49;;;;;;;;;;;;;;;;;;2208349;59;1160;-19
2023/06/17 10:28:20;;;;;;;;;;;;;;;;;;2211824;67;1810;-19
2023/06/17 10:30:51;;;;;;;;;;;;;;;;;;2212402;59;1573;-20
2023/06/17 10:33:25;;;;;;;;;;;;;;;;;;2210874;59;2032;-20
2023/06/17 10:36:05;;;;;;;;;;;;;;;;;;2212660;67;1326;-19
2023/06/17 10:38:38;;;;;;;;;;;;;;;;;;2208164;67;2350;-19
2023/06/17 10:41:08;;;;;;;;;;;;;;;;;;2209109;67;1642;-19
2023/06/17 10:43:38;;;;;;;;;;;;;;;;;;2208137;59;1985;-19
2023/06/17 10:46:08;;;;;;;;;;;;;;;;;;2210444;59;2284;-19
2023/06/17 10:48:38;;;;;;;;;;;;;;;;;;2211872;59;2436;-20
2023/06/17 10:51:10;;;;;;;;;;;;;;;;;;2209856;59;2632;-20
2023/06/17 10:53:45;;;;;;;;;;;;;;;;;;2210670;66;1973;-20
2023/06/17 10:56:16;;;;;;;;;;;;;;;;;;2212073;66;1952;-20
2023/06/17 10:58:47;;;;;;;;;;;;;;;;;;2208109;59;2338;-20
2023/06/17 11:01:17;;;;;;;;;;;;;;;;;;2212179;59;2282;-20
2023/06/17 11:03:47;;;;;;;;;;;;;;;;;;2206462;66;2287;-20
2023/06/17 11:06:17;;;;;;;;;;;;;;;;;;2210837;66;1973;-20
2023/06/17 11:08:48;;;;;;;;;;;;;;;;;;2211270;66;2473;-20
2023/06/17 11:11:18;;;;;;;;;;;;;;;;;;2211309;66;1794;-19
2023/06/17 11:13:50;;;;;;;;;;;;;;;;;;2211145;59;2219;-20
2023/06/17 11:16:20;;;;;;;;;;;;;;;;;;2209399;67;1813;-20
2023/06/17 11:18:51;;;;;;;;;;;;;;;;;;2211791;66;2444;-19
2023/06/17 11:21:21;;;;;;;;;;;;;;;;;;2208672;66;2323;-20
2023/06/17 11:23:52;;;;;;;;;;;;;;;;;;2207694;59;2637;-20
2023/06/17 11:26:25;;;;;;;;;;;;;;;;;;2212262;59;2062;-20
2023/06/17 11:28:56;;;;;;;;;;;;;;;;;;2211405;59;2147;-20
2023/06/17 11:31:26;;;;;;;;;;;;;;;;;;2206730;59;1809;-20
2023/06/17 11:33:57;;;;;;;;;;;;;;;;;;2207098;59;2369;-20
2023/06/17 11:36:28;;;;;;;;;;;;;;;;;;2211732;66;2476;-20
2023/06/17 11:38:58;;;;;;;;;;;;;;;;;;2211336;66;1656;-19
2023/06/17 11:41:33;;;;;;;;;;;;;;;;;;2211295;59;2225;-19
2023/06/17 11:44:03;;;;;;;;;;;;;;;;;;2207005;67;2450;-20
2023/06/17 11:46:36;;;;;;;;;;;;;;;;;;2210789;59;2239;-20
2023/06/17 11:49:07;;;;;;;;;;;;;;;;;;2210100;59;2831;-20
2023/06/17 11:51:37;;;;;;;;;;;;;;;;;;2211710;59;1939;-19
2023/06/17 11:54:09;;;;;;;;;;;;;;;;;;2207893;59;2971;-20
2023/06/17 11:56:39;;;;;;;;;;;;;;;;;;2204410;59;2540;-19
2023/06/17 11:59:13;;;;;;;;;;;;;;;;;;2207992;59;2248;-19
2023/06/17 12:01:44;;;;;;;;;;;;;;;;;;2212412;59;1765;-19
2023/06/17 12:04:14;;;;;;;;;;;;;;;;;;2209166;59;2457;-19
2023/06/17 12:06:44;;;;;;;;;;;;;;;;;;2209130;67;2123;-19
2023/06/17 12:09:15;;;;;;;;;;;;;;;;;;2211666;59;2274;-19
2023/06/17 12:11:46;;;;;;;;;;;;;;;;;;2212305;66;1891;-19
2023/06/17 12:14:19;;;;;;;;;;;;;;;;;;2205311;59;2114;-19
2023/06/17 12:16:51;;;;;;;;;;;;;;;;;;2208880;59;2425;-19
2023/06/17 12:19:25;;;;;;;;;;;;;;;;;;2211926;66;1789;-19
2023/06/17 12:21:55;;;;;;;;;;;;;;;;;;2212063;59;3249;-19
2023/06/17 12:24:25;;;;;;;;;;;;;;;;;;2211396;66;2435;-19
2023/06/17 12:26:55;;;;;;;;;;;;;;;;;;2211812;59;2120;-19
2023/06/17 12:29:26;;;;;;;;;;;;;;;;;;2210386;59;2327;-19
2023/06/17 12:31:56;;;;;;;;;;;;;;;;;;2211222;59;2099;-19
2023/06/17 12:34:26;;;;;;;;;;;;;;;;;;2210121;59;2210;-19
2023/06/17 12:36:59;;;;;;;;;;;;;;;;;;2211134;66;2034;-19
2023/06/17 12:39:30;;;;;;;;;;;;;;;;;;2208861;59;1630;-19
2023/06/17 12:42:00;;;;;;;;;;;;;;;;;;2208610;67;2621;-19
2023/06/17 12:44:30;;;;;;;;;;;;;;;;;;2210763;66;1847;-19
2023/06/17 12:47:02;;;;;;;;;;;;;;;;;;2209337;59;2395;-19
2023/06/17 12:49:33;;;;;;;;;;;;;;;;;;2210559;59;2628;-19
2023/06/17 12:52:03;;;;;;;;;;;;;;;;;;2208608;67;2505;-19
2023/06/17 12:54:33;;;;;;;;;;;;;;;;;;2212035;66;2109;-19
2023/06/17 12:57:04;;;;;;;;;;;;;;;;;;2207674;59;2257;-19
2023/06/17 12:59:35;;;;;;;;;;;;;;;;;;2206816;59;2601;-19
2023/06/17 13:02:05;;;;;;;;;;;;;;;;;;2207569;59;2480;-19
2023/06/17 13:04:35;;;;;;;;;;;;;;;;;;2208996;59;1856;-19
2023/06/17 13:07:06;;;;;;;;;;;;;;;;;;2209158;66;1848;-19
2023/06/17 13:09:36;;;;;;;;;;;;;;;;;;2209040;59;2456;-19
2023/06/17 13:12:06;;;;;;;;;;;;;;;;;;2211584;66;1818;-19
2023/06/17 13:14:36;;;;;;;;;;;;;;;;;;2212488;66;3004;-19
2023/06/17 13:17:07;;;;;;;;;;;;;;;;;;2211921;66;2342;-19
2023/06/17 13:19:37;;;;;;;;;;;;;;;;;;2211988;67;2341;-19
2023/06/17 13:22:08;;;;;;;;;;;;;;;;;;2212032;62;1983;-19
2023/06/17 13:24:38;;;;;;;;;;;;;;;;;;2211645;59;2122;-19
2023/06/17 13:27:09;;;;;;;;;;;;;;;;;;2211821;59;1329;-19
2023/06/17 13:29:39;;;;;;;;;;;;;;;;;;2211813;59;2022;-19
2023/06/17 13:32:11;;;;;;;;;;;;;;;;;;2211933;59;1624;-21
2023/06/17 13:34:41;;;;;;;;;;;;;;;;;;2209260;59;2432;-21
2023/06/17 13:37:11;;;;;;;;;;;;;;;;;;2208589;67;1271;-21
2023/06/17 13:39:43;;;;;;;;;;;;;;;;;;2212547;66;1608;-21
2023/06/17 13:42:13;;;;;;;;;;;;;;;;;;2211323;59;1937;-21
2023/06/17 13:44:44;;;;;;;;;;;;;;;;;;2212124;66;1384;-21
2023/06/17 13:47:17;;;;;;;;;;;;;;;;;;2208653;59;1720;-21
2023/06/17 13:49:47;;;;;;;;;;;;;;;;;;2210883;66;2742;-21
2023/06/17 13:52:17;;;;;;;;;;;;;;;;;;2211489;59;3293;-21
2023/06/17 13:54:48;;;;;;;;;;;;;;;;;;2212023;59;2135;-21
2023/06/17 13:57:18;;;;;;;;;;;;;;;;;;2208692;59;2020;-21
2023/06/17 13:59:48;;;;;;;;;;;;;;;;;;2212295;58;2413;-21
2023/06/17 14:02:18;;;;;;;;;;;;;;;;;;2211708;59;2012;-21
2023/06/17 14:04:50;;;;;;;;;;;;;;;;;;2211525;66;1676;-21
2023/06/17 14:07:20;;;;;;;;;;;;;;;;;;2211652;66;1747;-19
2023/06/17 14:09:51;;;;;;;;;;;;;;;;;;2208316;59;2532;-19
2023/06/17 14:12:21;;;;;;;;;;;;;;;;;;2211337;60;2041;-19
2023/06/17 14:14:52;;;;;;;;;;;;;;;;;;2211631;66;1774;-19
2023/06/17 14:17:23;;;;;;;;;;;;;;;;;;2211893;59;2174;-19
2023/06/17 14:19:54;;;;;;;;;;;;;;;;;;2210902;67;3013;-19
2023/06/17 14:22:24;;;;;;;;;;;;;;;;;;2212221;66;1940;-19
2023/06/17 14:24:54;;;;;;;;;;;;;;;;;;2211207;59;2190;-19
2023/06/17 14:27:31;;;;;;;;;;;;;;;;;;2209576;59;2108;-19
2023/06/17 14:30:05;;;;;;;;;;;;;;;;;;2211440;59;2112;-19
2023/06/17 14:32:36;;;;;;;;;;;;;;;;;;2205684;59;2058;-19
2023/06/17 14:35:08;;;;;;;;;;;;;;;;;;2209351;59;1352;-19
2023/06/17 14:37:41;;;;;;;;;;;;;;;;;;2211753;66;2293;-19
2023/06/17 14:40:12;;;;;;;;;;;;;;;;;;2210412;59;2340;-19
2023/06/17 14:42:43;;;;;;;;;;;;;;;;;;2212822;59;1927;-19
2023/06/17 14:45:15;;;;;;;;;;;;;;;;;;2211970;59;1669;-19
2023/06/17 14:47:48;;;;;;;;;;;;;;;;;;2210191;59;1762;-20
2023/06/17 14:50:19;;;;;;;;;;;;;;;;;;2211714;59;2595;-19
2023/06/17 14:52:50;;;;;;;;;;;;;;;;;;2208774;59;2634;-19
2023/06/17 14:55:25;;;;;;;;;;;;;;;;;;2217535;58;1758;-17
2023/06/17 14:57:55;;;;;;;;;;;;;;;;;;2213945;59;2016;-18
2023/06/17 15:00:26;;;;;;;;;;;;;;;;;;2214406;59;2198;-18
2023/06/17 15:03:07;;;;;;;;;;;;;;;;;;2211310;58;1892;-18
2023/06/17 15:05:37;;;;;;;;;;;;;;;;;;2214006;59;1349;-21
2023/06/17 15:08:07;;;;;;;;;;;;;;;;;;2224456;53;2522;-23
2023/06/17 15:10:38;;;;;;;;;;;;;;;;;;2223310;58;2003;-23
2023/06/17 15:13:08;;;;;;;;;;;;;;;;;;2222020;58;1925;-23
2023/06/17 15:15:44;;;;;;;;;;;;;;;;;;2222603;58;1835;-23
2023/06/17 15:18:14;;;;;;;;;;;;;;;;;;2222561;58;1509;-23
2023/06/17 15:20:44;;;;;;;;;;;;;;;;;;2223744;58;1772;-23
2023/06/17 15:23:15;;;;;;;;;;;;;;;;;;2223969;58;1862;-23
2023/06/17 15:25:46;;;;;;;;;;;;;;;;;;2221566;58;2183;-23
2023/06/17 15:28:16;;;;;;;;;;;;;;;;;;2224573;58;1728;-23
2023/06/17 15:30:46;;;;;;;;;;;;;;;;;;2226252;58;2292;-23
2023/06/17 15:33:16;;;;;;;;;;;;;;;;;;2223209;58;1978;-23
2023/06/17 15:35:47;;;;;;;;;;;;;;;;;;2224413;58;2853;-23
2023/06/17 15:38:17;;;;;;;;;;;;;;;;;;2222999;58;1972;-23
2023/06/17 15:40:47;;;;;;;;;;;;;;;;;;2224033;58;2417;-23
2023/06/17 15:43:17;;;;;;;;;;;;;;;;;;2223573;58;1696;-23
2023/06/17 15:45:47;;;;;;;;;;;;;;;;;;2223857;58;1655;-23
2023/06/17 15:48:18;;;;;;;;;;;;;;;;;;2223125;58;2204;-23
2023/06/17 15:50:48;;;;;;;;;;;;;;;;;;2223721;58;1755;-23
2023/06/17 15:53:18;;;;;;;;;;;;;;;;;;2222303;58;2595;-23
2023/06/17 15:55:49;;;;;;;;;;;;;;;;;;2223939;58;2273;-23
2023/06/17 15:58:19;;;;;;;;;;;;;;;;;;2219737;58;3248;-23
2023/06/17 16:00:50;;;;;;;;;;;;;;;;;;2224964;58;2083;-23
2023/06/17 16:03:39;;;;;;;;;;;;;;;;;;2223100;58;1700;-23
2023/06/17 16:06:09;;;;;;;;;;;;;;;;;;2221448;58;1762;-23
2023/06/17 16:08:39;;;;;;;;;;;;;;;;;;2221093;58;1715;-23
2023/06/17 16:11:13;;;;;;;;;;;;;;;;;;2220125;58;2311;-23
2023/06/17 16:13:43;;;;;;;;;;;;;;;;;;2217297;58;2435;-23
2023/06/17 16:16:13;;;;;;;;;;;;;;;;;;2219760;58;2301;-23
2023/06/17 16:18:44;;;;;;;;;;;;;;;;;;2220801;58;1775;-23
2023/06/17 16:21:14;;;;;;;;;;;;;;;;;;2219493;58;2304;-23
2023/06/17 16:23:44;;;;;;;;;;;;;;;;;;2221264;58;2004;-23
2023/06/17 16:26:14;;;;;;;;;;;;;;;;;;2216434;58;1741;-23
2023/06/17 16:28:44;;;;;;;;;;;;;;;;;;2217452;58;2417;-23
2023/06/17 16:31:15;;;;;;;;;;;;;;;;;;2216270;58;2226;-23
2023/06/17 16:33:45;;;;;;;;;;;;;;;;;;2220685;58;1929;-23
2023/06/17 16:36:15;;;;;;;;;;;;;;;;;;2220735;58;1648;-23
2023/06/17 16:38:45;;;;;;;;;;;;;;;;;;2221258;58;1525;-23
2023/06/17 16:41:16;;;;;;;;;;;;;;;;;;2216811;58;1738;-23
2023/06/17 16:43:46;;;;;;;;;;;;;;;;;;2221060;58;2632;-23
2023/06/17 16:46:16;;;;;;;;;;;;;;;;;;2217737;58;1859;-23
2023/06/17 16:48:47;;;;;;;;;;;;;;;;;;2220485;58;1980;-23
2023/06/17 16:51:17;;;;;;;;;;;;;;;;;;2219892;58;2365;-23
2023/06/17 16:53:47;;;;;;;;;;;;;;;;;;2218912;58;2542;-23
2023/06/17 16:56:17;;;;;;;;;;;;;;;;;;2220567;58;1988;-23
2023/06/17 16:58:51;;;;;;;;;;;;;;;;;;2217624;58;2037;-23
2023/06/17 17:01:27;;;;;;;;;;;;;;;;;;2219834;58;2248;-23
2023/06/17 17:03:58;;;;;;;;;;;;;;;;;;2216752;58;1781;-23
2023/06/17 17:06:28;;;;;;;;;;;;;;;;;;2220734;58;2314;-23
2023/06/17 17:08:58;;;;;;;;;;;;;;;;;;2221106;58;2676;-23
2023/06/17 17:11:28;;;;;;;;;;;;;;;;;;2220999;58;2280;-23
2023/06/17 17:13:59;;;;;;;;;;;;;;;;;;2220144;58;2923;-23
2023/06/17 17:16:29;;;;;;;;;;;;;;;;;;2220712;58;1998;-23
2023/06/17 17:18:59;;;;;;;;;;;;;;;;;;2219865;58;1771;-23
2023/06/17 17:21:30;;;;;;;;;;;;;;;;;;2218408;58;2086;-23
2023/06/17 17:24:03;;;;;;;;;;;;;;;;;;2223081;58;2199;-23
2023/06/17 17:26:33;;;;;;;;;;;;;;;;;;2221087;58;2080;-23
2023/06/17 17:29:04;;;;;;;;;;;;;;;;;;2220442;58;2645;-23